Terminal Aerodrome Forecast
Issued by NWS

Home | Current Version | Previous Version | Text Only | Print | Product List | Glossary On
Versions: 1 2 3 4 5 6 7 8 9 10 11 12 13 14 15 16 17 18 19 20 21 22 23 24 25 26 27 28 29 30 31 32 33 34 35 36
000
FTUS42 KMFL 231742
TAFOPF
TAF
KOPF 231742Z 2318/2418 05010KT P6SM SHRA SCT035 BKN070
     FM232000 06010KT P6SM VCSH SCT025 BKN050
     FM241300 05012G22KT P6SM VCSH SCT025 BKN070=

USA.gov is the U.S. government's official web portal to all federal, state and local government web resources and services.